createdAt,value
2023-03-03T00:01:58.008Z,7.48
2023-03-03T00:04:25.584Z,7.72
2023-03-03T00:06:53.056Z,7.72
2023-03-03T00:09:20.526Z,7.86
2023-03-03T00:11:56.533Z,7.70
2023-03-03T00:14:33.121Z,7.73
2023-03-03T00:17:02.583Z,7.66
2023-03-03T00:19:41.696Z,7.43
2023-03-03T00:22:24.496Z,7.49
2023-03-03T00:24:52.470Z,7.70
2023-03-03T00:27:36.189Z,7.77
2023-03-03T00:30:07.237Z,7.66
2023-03-03T00:32:50.820Z,7.66
2023-03-03T00:35:39.643Z,7.39
2023-03-03T00:38:18.589Z,7.30
2023-03-03T00:40:49.541Z,7.45
2023-03-03T00:43:37.260Z,7.40
2023-03-03T00:46:04.968Z,7.26
2023-03-03T00:48:44.586Z,7.38
2023-03-03T00:51:23.007Z,7.61
2023-03-03T00:53:51.863Z,7.39
2023-03-03T00:56:19.336Z,7.22
2023-03-03T00:58:48.217Z,7.17
2023-03-03T01:01:21.656Z,7.17
2023-03-03T01:03:52.585Z,7.11
2023-03-03T01:06:20.044Z,7.18
2023-03-03T01:08:47.566Z,7.22
2023-03-03T01:11:22.128Z,7.11
2023-03-03T01:13:51.960Z,7.05
2023-03-03T01:16:20.426Z,7.17
2023-03-03T01:18:47.938Z,7.01
2023-03-03T01:21:18.206Z,7.08
2023-03-03T01:23:45.647Z,6.97
2023-03-03T01:26:13.235Z,7.08
2023-03-03T01:28:40.886Z,7.18
2023-03-03T01:31:08.758Z,7.16
2023-03-03T01:33:37.408Z,7.39
2023-03-03T01:36:05.683Z,7.19
2023-03-03T01:38:36.908Z,7.21
2023-03-03T01:41:05.008Z,7.36
2023-03-03T01:43:33.918Z,7.53
2023-03-03T01:46:01.319Z,7.57
2023-03-03T01:48:32.989Z,7.43
2023-03-03T01:51:24.405Z,7.42
2023-03-03T01:54:06.164Z,7.37
2023-03-03T01:56:33.784Z,7.38
2023-03-03T01:59:07.906Z,7.40
2023-03-03T02:01:38.405Z,7.36
2023-03-03T02:04:06.137Z,7.32
2023-03-03T02:06:40.749Z,7.32
2023-03-03T02:09:29.189Z,7.57
2023-03-03T02:12:08.188Z,7.54
2023-03-03T02:14:36.156Z,7.55
2023-03-03T02:17:03.979Z,7.53
2023-03-03T02:19:41.767Z,7.43
2023-03-03T02:22:12.715Z,7.72
2023-03-03T02:25:00.441Z,7.70
2023-03-03T02:27:31.662Z,7.46
2023-03-03T02:30:08.040Z,7.47
2023-03-03T02:32:36.656Z,7.48
2023-03-03T02:35:32.153Z,7.60
2023-03-03T02:38:15.261Z,7.51
2023-03-03T02:40:55.877Z,7.43
2023-03-03T02:43:29.380Z,7.31
2023-03-03T02:45:57.082Z,7.41
2023-03-03T02:48:25.584Z,7.85
2023-03-03T02:50:53.638Z,7.54
2023-03-03T02:53:21.195Z,7.50
2023-03-03T02:55:48.674Z,7.68
2023-03-03T02:58:16.226Z,7.78
2023-03-03T03:00:43.751Z,7.49
2023-03-03T03:03:11.226Z,7.30
2023-03-03T03:05:40.162Z,7.84
2023-03-03T03:08:07.764Z,7.71
2023-03-03T03:10:37.005Z,7.42
2023-03-03T03:13:05.541Z,7.26
2023-03-03T03:15:34.041Z,7.25
2023-03-03T03:18:01.618Z,7.22
2023-03-03T03:20:29.402Z,7.14
2023-03-03T03:22:56.842Z,7.08
2023-03-03T03:25:24.451Z,7.09
2023-03-03T03:27:51.942Z,7.05
2023-03-03T03:30:20.822Z,7.10
2023-03-03T03:32:49.181Z,7.06
2023-03-03T03:35:17.557Z,7.11
2023-03-03T03:37:45.853Z,7.19
2023-03-03T03:40:13.796Z,7.21
2023-03-03T03:42:42.033Z,7.17
2023-03-03T03:45:10.267Z,7.19
2023-03-03T03:47:37.808Z,7.18
2023-03-03T03:50:06.875Z,7.20
2023-03-03T03:52:34.444Z,7.31
2023-03-03T03:55:03.370Z,7.19
2023-03-03T03:57:30.884Z,7.13
2023-03-03T03:59:58.332Z,7.20
2023-03-03T04:02:26.239Z,7.33
2023-03-03T04:04:54.057Z,7.30
2023-03-03T04:07:21.647Z,7.24
2023-03-03T04:09:49.639Z,7.25
2023-03-03T04:12:17.283Z,7.16
2023-03-03T04:14:44.762Z,7.10
2023-03-03T04:17:19.843Z,7.11
2023-03-03T04:19:47.733Z,7.07
2023-03-03T04:22:15.409Z,7.02
2023-03-03T04:24:44.774Z,7.04
2023-03-03T04:27:13.397Z,7.01
2023-03-03T04:29:41.214Z,7.06
2023-03-03T04:32:09.173Z,7.15
2023-03-03T04:34:37.139Z,7.25
2023-03-03T04:37:04.891Z,7.30
2023-03-03T04:39:32.486Z,7.37
2023-03-03T04:42:00.058Z,7.32
2023-03-03T04:44:28.137Z,7.40
2023-03-03T04:46:55.679Z,7.36
2023-03-03T04:49:23.225Z,7.41
2023-03-03T04:51:50.748Z,7.38
2023-03-03T04:54:18.219Z,7.34
2023-03-03T04:56:45.770Z,7.35
2023-03-03T04:59:15.357Z,7.29
2023-03-03T05:01:43.473Z,7.33
2023-03-03T05:04:11.051Z,7.36
2023-03-03T05:06:39.333Z,7.45
2023-03-03T05:09:06.787Z,7.46
2023-03-03T05:11:34.254Z,7.43
2023-03-03T05:14:03.080Z,7.44
2023-03-03T05:16:30.730Z,7.37
2023-03-03T05:18:58.728Z,7.36
2023-03-03T05:21:26.297Z,7.45
2023-03-03T05:23:53.789Z,7.35
2023-03-03T05:26:21.198Z,7.36
2023-03-03T05:28:48.820Z,7.36
2023-03-03T05:31:16.255Z,7.31
2023-03-03T05:33:43.812Z,7.39
2023-03-03T05:36:11.292Z,7.49
2023-03-03T05:38:38.777Z,7.52
2023-03-03T05:41:06.228Z,7.55
2023-03-03T05:43:33.832Z,7.66
2023-03-03T05:46:01.480Z,7.62
2023-03-03T05:48:29.489Z,7.66
2023-03-03T05:51:02.233Z,7.72
2023-03-03T05:53:30.847Z,7.80
2023-03-03T05:55:58.389Z,7.76
2023-03-03T05:58:25.870Z,7.79
2023-03-03T06:00:53.352Z,7.83
2023-03-03T06:03:20.966Z,7.82
2023-03-03T06:05:48.938Z,7.98
2023-03-03T06:08:16.533Z,8.07
2023-03-03T06:10:44.018Z,8.02
2023-03-03T06:13:14.010Z,8.04
2023-03-03T06:15:41.562Z,8.01
2023-03-03T06:18:09.558Z,8.07
2023-03-03T06:20:38.744Z,8.22
2023-03-03T06:23:06.891Z,8.14
2023-03-03T06:25:35.987Z,8.13
2023-03-03T06:28:04.305Z,8.13
2023-03-03T06:30:31.929Z,8.12
2023-03-03T06:32:59.406Z,8.03
2023-03-03T06:35:31.535Z,8.10
2023-03-03T06:37:59.055Z,8.10
2023-03-03T06:40:26.550Z,8.12
2023-03-03T06:42:54.013Z,8.19
2023-03-03T06:45:23.024Z,8.20
2023-03-03T06:47:50.442Z,8.20
2023-03-03T06:50:21.380Z,8.21
2023-03-03T06:52:49.465Z,8.21
2023-03-03T06:55:23.935Z,8.25
2023-03-03T06:57:51.517Z,8.27
2023-03-03T07:00:30.720Z,8.29
2023-03-03T07:03:12.309Z,8.39
2023-03-03T07:05:39.906Z,8.40
2023-03-03T07:08:21.505Z,8.40
2023-03-03T07:10:51.022Z,8.57
2023-03-03T07:13:27.780Z,8.68
2023-03-03T07:16:03.986Z,8.84
2023-03-03T07:19:06.449Z,8.80
2023-03-03T07:21:37.957Z,8.84
2023-03-03T07:24:29.405Z,8.84
2023-03-03T07:27:24.087Z,8.68
2023-03-03T07:29:56.340Z,8.63
2023-03-03T07:32:43.676Z,8.71
2023-03-03T07:35:42.761Z,8.97
2023-03-03T07:38:25.348Z,9.13
2023-03-03T07:40:56.385Z,8.89
2023-03-03T07:43:37.345Z,8.88
2023-03-03T07:46:23.787Z,8.69
2023-03-03T07:48:53.383Z,8.82
2023-03-03T07:51:37.041Z,9.03
2023-03-03T07:54:40.532Z,9.16
2023-03-03T07:57:40.856Z,9.37
2023-03-03T08:00:34.067Z,9.55
2023-03-03T08:03:05.171Z,9.20
2023-03-03T08:05:43.166Z,9.07
2023-03-03T08:08:10.962Z,8.75
2023-03-03T08:10:55.397Z,8.84
2023-03-03T08:13:27.597Z,8.84
2023-03-03T08:16:15.561Z,9.22
2023-03-03T08:18:48.520Z,9.18
2023-03-03T08:21:20.892Z,9.22
2023-03-03T08:23:53.380Z,9.07
2023-03-03T08:26:23.185Z,8.98
2023-03-03T08:28:51.604Z,9.05
2023-03-03T08:31:40.270Z,9.42
2023-03-03T08:34:09.205Z,9.33
2023-03-03T08:36:36.830Z,9.12
2023-03-03T08:39:06.079Z,8.98
2023-03-03T08:41:35.078Z,8.97
2023-03-03T08:44:03.292Z,9.20
2023-03-03T08:46:30.854Z,9.20
2023-03-03T08:48:58.390Z,9.17
2023-03-03T08:51:26.550Z,9.30
2023-03-03T08:53:54.179Z,9.37
2023-03-03T08:56:21.870Z,9.45
2023-03-03T08:59:01.655Z,9.35
2023-03-03T09:01:31.737Z,9.32
2023-03-03T09:04:00.194Z,9.36
2023-03-03T09:06:27.747Z,9.44
2023-03-03T09:08:55.296Z,9.50
2023-03-03T09:11:29.170Z,9.65
2023-03-03T09:14:18.173Z,9.59
2023-03-03T09:16:52.957Z,9.62
2023-03-03T09:19:37.352Z,9.58
2023-03-03T09:22:25.275Z,9.59
2023-03-03T09:25:02.572Z,9.84
2023-03-03T09:27:35.995Z,10.00
2023-03-03T09:30:47.469Z,9.77
2023-03-03T09:33:41.281Z,9.68
2023-03-03T09:36:31.768Z,9.62
2023-03-03T09:39:00.882Z,9.76
2023-03-03T09:42:10.566Z,9.82
2023-03-03T09:45:17.972Z,9.67
2023-03-03T09:48:02.899Z,9.82
2023-03-03T09:50:57.247Z,9.97
2023-03-03T09:53:36.440Z,10.01
2023-03-03T09:56:35.368Z,10.07
2023-03-03T09:59:30.654Z,9.88
2023-03-03T10:02:21.806Z,10.03
2023-03-03T10:05:17.483Z,10.37
2023-03-03T10:08:11.540Z,10.25
2023-03-03T10:10:51.408Z,10.08
2023-03-03T10:13:52.225Z,10.01
2023-03-03T10:17:15.554Z,10.16
2023-03-03T10:20:00.425Z,9.85
2023-03-03T10:23:08.653Z,9.63
2023-03-03T10:26:11.133Z,9.84
2023-03-03T10:28:44.576Z,9.81
2023-03-03T10:31:43.175Z,10.14
2023-03-03T10:35:01.239Z,10.43
2023-03-03T10:38:05.251Z,10.21
2023-03-03T10:40:50.860Z,9.72
2023-03-03T10:43:51.320Z,9.79
2023-03-03T10:46:50.876Z,9.78
2023-03-03T10:49:53.787Z,9.41
2023-03-03T10:53:09.435Z,9.41
2023-03-03T10:56:11.120Z,9.43
2023-03-03T10:58:53.680Z,9.23
2023-03-03T11:02:11.500Z,9.29
2023-03-03T11:05:06.540Z,9.13
2023-03-03T11:07:42.874Z,9.26
2023-03-03T11:10:30.809Z,9.01
2023-03-03T11:13:35.352Z,9.26
2023-03-03T11:16:21.873Z,9.45
2023-03-03T11:19:02.381Z,9.47
2023-03-03T11:21:47.402Z,9.62
2023-03-03T11:24:51.194Z,9.59
2023-03-03T11:37:10.254Z,9.66
2023-03-03T11:39:40.321Z,9.56
2023-03-03T11:42:17.222Z,9.92
2023-03-03T11:45:20.633Z,9.95
2023-03-03T11:48:14.002Z,9.71
2023-03-03T11:51:27.577Z,9.41
2023-03-03T11:54:22.563Z,9.41
2023-03-03T12:00:09.574Z,9.70
2023-03-03T12:03:37.732Z,10.06
2023-03-03T12:06:28.825Z,10.21
2023-03-03T12:09:29.404Z,10.06
2023-03-03T12:12:22.191Z,9.94
2023-03-03T12:15:05.118Z,10.43
2023-03-03T12:18:06.112Z,10.40
2023-03-03T12:21:03.881Z,10.33
2023-03-03T12:24:10.896Z,10.33
2023-03-03T12:27:16.822Z,10.39
2023-03-03T12:29:53.701Z,10.36
2023-03-03T12:32:48.078Z,10.45
2023-03-03T12:35:42.559Z,10.62
2023-03-03T12:38:19.006Z,10.70
2023-03-03T12:41:08.744Z,11.26
2023-03-03T12:43:54.903Z,10.81
2023-03-03T12:46:39.035Z,10.52
2023-03-03T12:49:06.677Z,10.64
2023-03-03T12:51:51.852Z,10.19
2023-03-03T12:55:06.351Z,10.64
2023-03-03T12:57:53.056Z,10.78
2023-03-03T13:00:39.836Z,10.37
2023-03-03T13:03:56.038Z,10.54
2023-03-03T13:06:30.587Z,10.16
2023-03-03T13:09:33.632Z,10.57
2023-03-03T13:12:32.168Z,10.40
2023-03-03T13:15:24.810Z,10.46
2023-03-03T13:18:34.589Z,10.12
2023-03-03T13:21:19.513Z,10.31
2023-03-03T13:24:18.436Z,10.20
2023-03-03T13:27:01.471Z,10.23
2023-03-03T13:29:57.511Z,10.73
2023-03-03T13:32:42.780Z,10.71
2023-03-03T13:35:32.694Z,10.66
2023-03-03T13:38:02.089Z,11.26
2023-03-03T13:40:49.811Z,10.96
2023-03-03T13:43:47.168Z,10.68
2023-03-03T13:46:45.724Z,10.54
2023-03-03T13:49:46.505Z,10.50
2023-03-03T13:52:23.820Z,10.43
2023-03-03T13:55:26.597Z,10.42
2023-03-03T13:58:13.075Z,10.47
2023-03-03T14:01:28.714Z,10.33
2023-03-03T14:04:06.751Z,10.41
2023-03-03T14:06:34.440Z,10.44
2023-03-03T14:09:15.995Z,10.37
2023-03-03T14:12:08.570Z,10.31
2023-03-03T14:14:57.980Z,10.35
2023-03-03T14:18:05.553Z,10.48
2023-03-03T14:20:40.326Z,10.39
2023-03-03T14:23:25.620Z,10.51
2023-03-03T14:26:07.506Z,10.31
2023-03-03T14:28:45.284Z,10.27
2023-03-03T14:31:31.651Z,10.28
2023-03-03T14:34:24.750Z,10.18
2023-03-03T14:37:09.149Z,10.10
2023-03-03T14:39:39.882Z,10.05
2023-03-03T14:42:49.802Z,10.43
2023-03-03T14:45:34.758Z,10.57
2023-03-03T14:48:32.850Z,10.84
2023-03-03T14:51:30.011Z,10.49
2023-03-03T14:54:01.937Z,10.45
2023-03-03T14:56:39.618Z,10.47
2023-03-03T14:59:28.572Z,10.51
2023-03-03T15:02:17.769Z,10.53
2023-03-03T15:05:09.733Z,10.52
2023-03-03T15:07:38.899Z,10.32
2023-03-03T15:10:10.034Z,10.18
2023-03-03T15:12:46.629Z,10.28
2023-03-03T15:15:22.765Z,10.23
2023-03-03T15:18:05.358Z,10.19
2023-03-03T15:20:41.807Z,10.25
2023-03-03T15:24:03.132Z,10.01
2023-03-03T15:27:02.808Z,9.89
2023-03-03T15:30:02.505Z,9.98
2023-03-03T15:32:59.932Z,10.00
2023-03-03T15:35:53.367Z,9.99
2023-03-03T15:38:56.678Z,10.24
2023-03-03T15:41:59.519Z,10.20
2023-03-03T15:45:06.474Z,10.12
2023-03-03T15:48:09.867Z,10.19
2023-03-03T15:51:09.303Z,10.13
2023-03-03T15:54:10.378Z,10.03
2023-03-03T15:57:00.389Z,9.82
2023-03-03T16:00:02.151Z,9.77
2023-03-03T16:02:58.936Z,9.90
2023-03-03T16:05:34.130Z,9.89
2023-03-03T16:08:14.021Z,10.16
2023-03-03T16:11:16.256Z,9.99
2023-03-03T16:14:29.669Z,9.87
2023-03-03T16:17:36.154Z,9.83
2023-03-03T16:20:42.791Z,9.70
2023-03-03T16:23:39.140Z,9.81
2023-03-03T16:26:40.949Z,9.76
2023-03-03T16:29:50.017Z,9.74
2023-03-03T16:32:41.487Z,9.78
2023-03-03T16:35:29.270Z,9.72
2023-03-03T16:38:00.280Z,9.58
2023-03-03T16:40:38.405Z,9.46
2023-03-03T16:43:33.762Z,9.52
2023-03-03T16:46:38.517Z,9.62
2023-03-03T16:49:33.421Z,9.70
2023-03-03T16:52:37.224Z,9.78
2023-03-03T16:55:37.802Z,9.77
2023-03-03T16:58:33.958Z,10.21
2023-03-03T17:01:33.055Z,10.06
2023-03-03T17:04:36.256Z,9.86
2023-03-03T17:07:44.751Z,9.75
2023-03-03T17:10:33.714Z,9.69
2023-03-03T17:13:20.932Z,9.59
2023-03-03T17:16:06.672Z,9.49
2023-03-03T17:19:23.437Z,9.58
2023-03-03T17:22:17.457Z,9.48
2023-03-03T17:25:11.708Z,9.37
2023-03-03T17:27:57.545Z,9.33
2023-03-03T17:30:42.192Z,9.30
2023-03-03T17:33:34.922Z,9.27
2023-03-03T17:36:30.190Z,9.16
2023-03-03T17:39:30.977Z,9.19
2023-03-03T17:42:35.180Z,9.19
2023-03-03T17:45:14.466Z,9.08
2023-03-03T17:48:32.025Z,9.15
2023-03-03T17:52:00.105Z,9.15
2023-03-03T17:54:51.946Z,9.14
2023-03-03T17:57:33.820Z,9.14
2023-03-03T18:00:45.631Z,9.18
2023-03-03T18:03:48.425Z,9.17
2023-03-03T18:07:12.822Z,9.17
2023-03-03T18:10:10.137Z,9.18
2023-03-03T18:13:10.401Z,9.26
2023-03-03T18:19:02.744Z,9.35
2023-03-03T18:21:52.709Z,9.49
2023-03-03T18:25:01.175Z,9.62
2023-03-03T18:27:36.540Z,9.50
2023-03-03T18:30:35.412Z,9.54
2023-03-03T18:33:11.957Z,9.33
2023-03-03T18:35:47.591Z,9.23
2023-03-03T18:38:27.212Z,9.18
2023-03-03T18:41:28.919Z,9.21
2023-03-03T18:44:04.669Z,9.23
2023-03-03T18:46:32.098Z,9.18
2023-03-03T18:49:08.812Z,9.28
2023-03-03T18:51:39.094Z,9.26
2023-03-03T18:54:12.182Z,9.21
2023-03-03T18:56:48.271Z,9.15
2023-03-03T19:00:09.797Z,9.15
2023-03-03T19:02:46.331Z,9.13
2023-03-03T19:05:38.833Z,9.18
2023-03-03T19:08:53.748Z,9.08
2023-03-03T19:11:56.158Z,9.22
2023-03-03T19:14:29.448Z,9.29
2023-03-03T19:16:59.539Z,9.15
2023-03-03T19:19:34.376Z,9.15
2023-03-03T19:22:28.413Z,9.15
2023-03-03T19:25:23.949Z,9.14
2023-03-03T19:28:38.715Z,9.07
2023-03-03T19:31:37.693Z,8.98
2023-03-03T19:34:16.946Z,9.14
2023-03-03T19:36:58.152Z,9.22
2023-03-03T19:40:16.107Z,9.15
2023-03-03T19:43:28.934Z,8.99
2023-03-03T19:46:29.994Z,9.01
2023-03-03T19:49:54.302Z,9.01
2023-03-03T20:12:40.498Z,9.01
2023-03-03T20:38:47.108Z,8.42
2023-03-03T20:41:37.958Z,8.39
2023-03-03T20:44:51.958Z,8.36
2023-03-03T21:00:12.577Z,8.56
2023-03-03T21:03:37.460Z,8.51
2023-03-03T21:06:20.508Z,8.50
2023-03-03T21:08:54.345Z,8.60
2023-03-03T21:11:44.989Z,8.55
2023-03-03T21:14:24.185Z,8.43
2023-03-03T21:16:57.205Z,8.33
2023-03-03T21:19:38.934Z,8.24
2023-03-03T21:22:06.546Z,8.43
2023-03-03T21:24:59.313Z,8.39
2023-03-03T21:27:38.370Z,8.14
2023-03-03T21:30:28.900Z,8.27
2023-03-03T21:33:02.376Z,8.23
2023-03-03T21:35:29.923Z,8.26
2023-03-03T21:37:58.382Z,8.39
2023-03-03T21:40:29.317Z,8.34
2023-03-03T21:43:00.692Z,8.33
2023-03-03T21:45:30.211Z,8.32
2023-03-03T21:48:01.347Z,8.19
2023-03-03T21:50:32.803Z,8.16
2023-03-03T21:53:01.581Z,8.07
2023-03-03T21:55:30.308Z,8.00
2023-03-03T21:57:57.875Z,8.02
2023-03-03T22:00:26.210Z,8.08
2023-03-03T22:02:55.343Z,8.34
2023-03-03T22:05:42.795Z,8.49
2023-03-03T22:08:10.397Z,8.11
2023-03-03T22:10:39.267Z,7.98
2023-03-03T22:13:06.810Z,7.87
2023-03-03T22:15:34.320Z,7.73
2023-03-03T22:18:01.799Z,7.67
2023-03-03T22:20:29.332Z,7.67
2023-03-03T22:22:56.865Z,7.69
2023-03-03T22:25:26.769Z,7.65
2023-03-03T22:27:54.262Z,7.61
2023-03-03T22:30:21.745Z,7.54
2023-03-03T22:32:52.342Z,7.57
2023-03-03T22:35:22.404Z,7.49
2023-03-03T22:37:49.976Z,7.49
2023-03-03T22:40:18.799Z,7.51
2023-03-03T22:42:46.235Z,7.56
2023-03-03T22:45:14.426Z,7.44
2023-03-03T22:48:24.415Z,7.42
2023-03-03T22:50:53.237Z,7.36
2023-03-03T22:53:21.387Z,7.37
2023-03-03T22:55:50.094Z,7.32
2023-03-03T22:58:21.498Z,7.34
2023-03-03T23:00:49.482Z,7.42
2023-03-03T23:03:37.305Z,7.41
2023-03-03T23:06:05.373Z,7.34
2023-03-03T23:08:32.910Z,7.27
2023-03-03T23:11:00.383Z,7.24
2023-03-03T23:13:27.947Z,7.10
2023-03-03T23:16:00.141Z,7.06
2023-03-03T23:18:30.765Z,7.09
2023-03-03T23:20:58.943Z,7.08
2023-03-03T23:23:26.430Z,7.01
2023-03-03T23:25:54.025Z,7.01
2023-03-03T23:28:30.419Z,6.94
2023-03-03T23:30:58.096Z,6.94
2023-03-03T23:33:25.529Z,6.94
2023-03-03T23:35:53.160Z,6.92
2023-03-03T23:38:20.784Z,6.85
2023-03-03T23:40:48.227Z,6.85
2023-03-03T23:43:15.913Z,6.85
2023-03-03T23:45:43.650Z,6.83
2023-03-03T23:48:11.792Z,6.76
2023-03-03T23:50:39.586Z,6.69
2023-03-03T23:53:08.273Z,6.69
2023-03-03T23:55:37.619Z,6.66
2023-03-03T23:58:05.717Z,6.71
